Time;durP1;ratioP1;P1;durP2;ratioP2;P2;SDS_P1;SDS_P2;PMS_P1;PMS_P2;Temp;Humidity;BMP_temperature;BMP_pressure;BME280_temperature;BME280_humidity;BME280_pressure;Samples;Min_cycle;Max_cycle;Signal;HPM_P1;HPM_P2
2021/11/06 00:02:13;;;;;;;6.87;5.40;;;7.00;93.60;;;;;;4960731;28;20674;-91
2021/11/06 07:11:54;;;;;;;6.63;4.93;;;4.00;95.90;;;;;;5141252;23;20239;-86
2021/11/06 08:13:04;;;;;;;4.17;3.77;;;6.20;92.90;;;;;;5412472;23;20227;-91
2021/11/06 08:16:05;;;;;;;3.90;3.60;;;6.30;92.20;;;;;;4996288;28;20655;-91
2021/11/06 08:29:45;;;;;;;4.90;3.78;;;7.40;90.00;;;;;;4999348;28;20188;-93
2021/11/06 09:12:06;;;;;;;5.60;5.10;;;18.90;23.10;;;;;;4998984;28;20207;-90
2021/11/06 09:14:34;;;;;;;6.93;6.32;;;19.00;22.30;;;;;;4994491;28;20284;-91
2021/11/06 09:17:02;;;;;;;6.50;6.00;;;19.30;22.50;;;;;;4999042;28;20202;-91
2021/11/06 09:19:30;;;;;;;5.85;4.90;;;18.50;20.60;;;;;;4990221;28;20207;-92
2021/11/06 09:24:45;;;;;;;5.18;4.78;;;18.60;22.50;;;;;;4990390;28;20681;-92
2021/11/06 09:27:12;;;;;;;4.72;4.32;;;18.90;21.30;;;;;;4987501;28;20238;-89
2021/11/06 09:29:40;;;;;;;6.00;5.40;;;18.50;22.20;;;;;;5003574;28;20255;-92
2021/11/06 09:32:18;;;;;;;5.55;5.15;;;19.90;19.80;;;;;;4983441;28;20642;-90
2021/11/06 09:34:45;;;;;;;6.70;4.90;;;18.20;19.80;;;;;;4988738;28;20195;-92
2021/11/06 09:37:11;;;;;;;5.32;4.85;;;18.00;21.80;;;;;;4987576;28;20319;-92
2021/11/06 09:39:38;;;;;;;5.68;5.18;;;18.10;21.40;;;;;;4983086;28;20202;-89
2021/11/06 09:42:08;;;;;;;5.43;4.93;;;18.00;21.40;;;;;;4990201;28;20223;-89
2021/11/06 09:44:50;;;;;;;5.50;4.95;;;17.60;22.20;;;;;;4993435;28;20218;-88
2021/11/06 09:55:21;;;;;;;7.75;6.93;;;17.50;22.10;;;;;;5008501;28;20207;-89
2021/11/06 09:57:52;;;;;;;5.80;5.30;;;16.60;23.40;;;;;;5018338;28;20222;-89
2021/11/06 10:28:32;;;;;;;5.85;5.35;;;14.40;27.40;;;;;;5026014;28;20199;-92
2021/11/06 10:31:37;;;;;;;5.28;4.78;;;15.00;27.80;;;;;;5018836;28;20221;-92
2021/11/06 10:34:15;;;;;;;4.72;4.32;;;15.70;26.30;;;;;;5016636;28;20215;-90
2021/11/06 10:36:46;;;;;;;5.45;4.95;;;16.40;25.80;;;;;;5008888;28;20200;-91
2021/11/06 10:39:13;;;;;;;5.93;5.03;;;16.80;26.10;;;;;;4998261;28;20214;-91
2021/11/06 10:42:33;;;;;;;5.63;5.13;;;16.70;24.10;;;;;;4997272;28;20188;-91
2021/11/06 11:46:13;;;;;;;6.03;5.47;;;9.60;54.60;;;;;;4978817;28;20191;-96
2021/11/06 15:00:02;;;;;;;8.13;7.32;;;9.90;51.60;;;;;;5005982;28;20298;-94
2021/11/06 15:31:44;;;;;;;13.75;8.43;;;9.20;58.30;;;;;;5673691;23;20571;-93
2021/11/06 15:40:00;;;;;;;8.38;7.00;;;8.80;60.90;;;;;;4977064;28;20205;-92
2021/11/06 15:43:07;;;;;;;10.23;7.65;;;8.60;62.30;;;;;;4981118;28;20295;-93
2021/11/06 15:51:37;;;;;;;11.32;9.07;;;8.20;70.70;;;;;;5377043;23;20323;-92
2021/11/06 15:54:06;;;;;;;10.80;9.13;;;8.10;73.00;;;;;;4997148;28;20199;-89
2021/11/06 15:56:33;;;;;;;12.10;8.93;;;7.90;74.90;;;;;;4993636;28;20212;-90
2021/11/06 15:59:00;;;;;;;11.32;9.73;;;7.80;76.40;;;;;;4994254;28;20819;-93
2021/11/06 16:01:27;;;;;;;11.48;10.18;;;7.70;78.30;;;;;;4996196;28;20203;-89
2021/11/06 16:03:53;;;;;;;10.90;9.20;;;7.60;78.90;;;;;;4984708;28;20616;-91
2021/11/06 16:06:21;;;;;;;11.43;9.63;;;7.60;80.00;;;;;;4999132;28;20210;-89
2021/11/06 16:08:49;;;;;;;13.82;9.35;;;7.50;80.60;;;;;;4986087;28;20632;-90
2021/11/06 16:11:16;;;;;;;10.73;9.63;;;7.40;81.40;;;;;;4987729;28;20237;-89
2021/11/06 16:16:26;;;;;;;12.45;9.68;;;7.30;82.40;;;;;;4994940;28;20199;-88
2021/11/06 16:18:54;;;;;;;12.75;9.77;;;7.30;82.80;;;;;;4991021;28;20256;-88
2021/11/06 16:21:23;;;;;;;12.68;11.07;;;7.20;83.70;;;;;;4980767;28;20207;-89
2021/11/06 16:23:52;;;;;;;14.35;11.85;;;7.20;85.40;;;;;;4987968;28;20318;-90
2021/11/06 16:26:19;;;;;;;17.30;12.88;;;7.10;87.70;;;;;;4997245;28;20204;-89
2021/11/06 16:28:48;;;;;;;17.70;14.63;;;7.10;90.20;;;;;;4990039;28;20227;-89
2021/11/06 16:31:16;;;;;;;22.58;17.02;;;7.10;91.20;;;;;;4988315;28;20267;-89
2021/11/06 16:33:43;;;;;;;25.48;19.63;;;7.10;92.60;;;;;;4988749;28;20241;-89
2021/11/06 16:36:14;;;;;;;27.08;19.77;;;7.00;93.90;;;;;;4989689;28;20199;-90
2021/11/06 16:38:42;;;;;;;25.33;20.70;;;7.00;94.60;;;;;;4990018;28;20224;-91
2021/11/06 16:43:52;;;;;;;32.07;20.83;;;6.90;95.50;;;;;;4992474;28;20223;-90
2021/11/06 16:46:22;;;;;;;27.67;21.17;;;6.80;95.90;;;;;;4998123;28;20201;-92
2021/11/06 16:48:49;;;;;;;27.33;20.97;;;6.70;96.20;;;;;;4990907;28;20246;-91
2021/11/06 16:51:17;;;;;;;29.90;21.92;;;6.70;96.60;;;;;;4977173;28;20220;-91
2021/11/06 16:53:44;;;;;;;29.10;21.50;;;6.70;96.60;;;;;;4972552;28;20224;-89
2021/11/06 16:56:16;;;;;;;31.92;22.80;;;6.60;97.00;;;;;;4970805;28;20316;-90
2021/11/06 16:58:47;;;;;;;32.20;23.03;;;6.60;97.10;;;;;;4975042;28;20228;-90
2021/11/06 17:01:31;;;;;;;32.83;23.47;;;6.60;97.20;;;;;;4968303;28;20219;-90
2021/11/06 17:03:58;;;;;;;32.30;24.17;;;6.60;97.20;;;;;;4957002;28;20225;-89
2021/11/06 17:06:28;;;;;;;31.80;23.65;;;6.40;97.50;;;;;;4976794;28;20200;-90
2021/11/06 17:09:13;;;;;;;34.73;23.87;;;6.40;97.60;;;;;;4967524;28;20231;-92
2021/11/06 17:11:42;;;;;;;36.17;25.50;;;6.40;97.80;;;;;;4974546;28;20487;-92
2021/11/06 17:14:09;;;;;;;32.90;23.23;;;6.30;98.00;;;;;;4972637;28;20220;-90
2021/11/06 17:16:36;;;;;;;33.40;24.23;;;6.30;98.00;;;;;;4971383;28;20204;-90
2021/11/06 17:19:03;;;;;;;35.43;24.63;;;6.20;98.00;;;;;;4967728;28;20232;-90
2021/11/06 17:21:30;;;;;;;38.37;25.63;;;6.20;98.10;;;;;;4965219;28;20217;-90
2021/11/06 17:23:58;;;;;;;42.60;26.87;;;6.10;98.40;;;;;;4968435;28;20230;-92
2021/11/06 17:26:25;;;;;;;38.97;26.73;;;6.00;98.60;;;;;;4974856;28;20206;-92
2021/11/06 17:28:53;;;;;;;38.50;26.83;;;6.00;98.80;;;;;;4967441;28;20692;-92
2021/11/06 17:31:21;;;;;;;38.20;26.63;;;5.90;98.90;;;;;;4969553;28;20235;-91
2021/11/06 17:33:49;;;;;;;39.90;27.17;;;5.80;99.20;;;;;;4974657;28;20227;-94
2021/11/06 17:36:18;;;;;;;42.03;26.50;;;5.80;99.30;;;;;;4974232;28;20247;-92
2021/11/06 17:38:46;;;;;;;40.13;28.20;;;5.80;99.60;;;;;;4977211;28;20282;-93
2021/11/06 17:41:13;;;;;;;42.77;27.60;;;5.80;99.40;;;;;;4950084;28;20198;-91
2021/11/06 17:43:40;;;;;;;41.87;28.43;;;5.80;99.50;;;;;;4967199;28;20590;-88
2021/11/06 17:46:09;;;;;;;43.10;28.73;;;5.70;99.50;;;;;;4974371;28;20515;-91
2021/11/06 17:48:38;;;;;;;44.00;28.83;;;5.70;99.70;;;;;;4970301;28;20231;-89
2021/11/06 17:51:08;;;;;;;43.37;28.63;;;5.70;99.70;;;;;;4971092;28;20268;-87
2021/11/06 17:53:42;;;;;;;42.93;27.90;;;5.70;99.90;;;;;;4972370;28;20224;-88
2021/11/06 17:56:09;;;;;;;43.77;28.57;;;5.70;99.90;;;;;;4972555;28;20201;-87
2021/11/06 17:58:37;;;;;;;42.83;27.60;;;5.80;99.90;;;;;;4970027;28;20230;-87
2021/11/06 18:01:04;;;;;;;39.23;25.87;;;5.80;99.80;;;;;;4982541;28;20207;-87
2021/11/06 18:03:35;;;;;;;41.67;27.47;;;5.90;99.50;;;;;;4977455;28;20241;-90
2021/11/06 18:06:02;;;;;;;37.70;26.13;;;5.90;99.20;;;;;;4981182;28;20207;-89
2021/11/06 18:08:29;;;;;;;59.43;28.90;;;5.90;99.30;;;;;;4977075;28;20230;-90
2021/11/06 18:11:05;;;;;;;40.03;27.43;;;6.00;99.10;;;;;;4979673;28;20227;-89
2021/11/06 18:13:32;;;;;;;46.00;27.40;;;6.00;99.00;;;;;;4966710;28;20233;-89
2021/11/06 18:16:01;;;;;;;49.97;29.73;;;5.90;99.10;;;;;;4971549;28;20197;-89
2021/11/06 18:18:29;;;;;;;42.63;28.83;;;6.00;99.00;;;;;;4968520;28;20236;-87
2021/11/06 18:20:58;;;;;;;59.77;29.40;;;6.00;98.80;;;;;;4971449;28;20199;-88
2021/11/06 18:23:25;;;;;;;49.13;29.33;;;5.90;98.60;;;;;;4977951;28;20231;-89
2021/11/06 18:25:52;;;;;;;56.10;30.43;;;5.90;99.00;;;;;;4971494;28;20202;-87
2021/11/06 18:28:19;;;;;;;69.87;31.43;;;5.70;99.00;;;;;;4968350;28;20243;-87
2021/11/06 18:30:46;;;;;;;52.17;29.13;;;5.60;99.20;;;;;;4972326;28;20196;-86
2021/11/06 18:33:14;;;;;;;50.20;29.37;;;5.60;99.50;;;;;;4974356;28;20225;-86
2021/11/06 18:35:42;;;;;;;46.87;29.60;;;5.60;99.60;;;;;;4972712;28;20200;-86
2021/11/06 18:38:10;;;;;;;45.43;28.17;;;5.60;99.60;;;;;;4975012;28;20224;-87
2021/11/06 18:40:38;;;;;;;44.00;28.03;;;5.50;99.60;;;;;;4969785;28;20212;-87
2021/11/06 18:43:05;;;;;;;42.30;29.07;;;5.50;99.70;;;;;;4976762;28;20287;-87
2021/11/06 18:45:35;;;;;;;42.47;28.10;;;5.40;99.80;;;;;;4973823;28;20203;-88
2021/11/06 18:48:09;;;;;;;42.90;27.27;;;5.30;99.80;;;;;;4962103;28;20271;-88
2021/11/06 18:50:36;;;;;;;41.53;26.73;;;5.30;99.90;;;;;;4976513;28;20236;-87
2021/11/06 18:53:04;;;;;;;39.23;26.90;;;5.40;99.90;;;;;;4977319;28;20284;-87
2021/11/06 18:55:32;;;;;;;39.13;26.37;;;5.40;99.80;;;;;;4968230;28;20198;-88
2021/11/06 18:57:59;;;;;;;39.37;26.03;;;5.40;99.40;;;;;;4972004;28;20992;-87
2021/11/06 19:00:28;;;;;;;37.73;25.53;;;5.40;99.00;;;;;;4971337;28;20303;-87
2021/11/06 19:02:56;;;;;;;37.13;25.07;;;5.40;98.50;;;;;;4970376;28;20590;-87
2021/11/06 19:05:24;;;;;;;40.23;26.20;;;5.40;98.20;;;;;;4973753;28;20201;-88
2021/11/06 19:07:51;;;;;;;39.33;26.47;;;5.40;98.20;;;;;;4968042;28;21581;-87
2021/11/06 19:10:18;;;;;;;42.03;26.57;;;5.30;97.70;;;;;;4969294;28;20204;-87
2021/11/06 19:12:47;;;;;;;41.80;26.97;;;5.30;97.70;;;;;;4964027;28;20612;-87
2021/11/06 19:15:15;;;;;;;43.53;28.07;;;5.30;97.50;;;;;;4965946;28;20202;-88
2021/11/06 19:17:43;;;;;;;44.43;28.37;;;5.20;97.60;;;;;;4972805;28;20225;-88
2021/11/06 19:20:11;;;;;;;43.33;26.53;;;5.00;97.70;;;;;;4973142;28;20197;-86
2021/11/06 19:22:39;;;;;;;36.63;24.17;;;4.90;98.10;;;;;;4969071;28;20232;-88
2021/11/06 19:25:09;;;;;;;36.43;24.43;;;5.00;98.20;;;;;;4973683;28;20208;-87
2021/11/06 19:27:39;;;;;;;33.97;23.10;;;5.00;97.90;;;;;;4974358;28;20320;-87
2021/11/06 19:30:15;;;;;;;33.03;23.23;;;5.00;97.60;;;;;;4978342;28;20193;-85
2021/11/06 19:32:43;;;;;;;31.57;22.40;;;4.90;97.50;;;;;;4979651;28;20224;-85
2021/11/06 19:35:11;;;;;;;33.97;24.73;;;4.80;97.20;;;;;;4977247;28;20201;-85
2021/11/06 19:37:38;;;;;;;41.90;28.17;;;4.70;97.30;;;;;;4977834;28;20243;-86
2021/11/06 19:40:08;;;;;;;41.73;26.47;;;4.50;97.40;;;;;;4976074;28;20216;-86
2021/11/06 19:42:35;;;;;;;39.27;26.57;;;4.40;97.80;;;;;;4980858;28;20323;-85
2021/11/06 19:45:07;;;;;;;37.73;26.80;;;4.30;98.10;;;;;;4977696;28;20204;-85
2021/11/06 19:47:39;;;;;;;38.27;26.40;;;4.30;98.10;;;;;;4977156;28;21162;-86
2021/11/06 19:50:07;;;;;;;38.07;26.93;;;4.20;98.10;;;;;;4972759;28;20229;-86
2021/11/06 19:52:34;;;;;;;38.33;26.07;;;4.20;98.30;;;;;;4973852;28;20283;-86
2021/11/06 19:55:01;;;;;;;34.53;25.40;;;4.10;98.30;;;;;;4976300;28;20207;-85
2021/11/06 19:57:28;;;;;;;37.47;25.40;;;4.20;98.00;;;;;;4968704;28;20596;-86
2021/11/06 19:59:55;;;;;;;37.27;25.50;;;4.20;97.50;;;;;;4964570;28;20204;-85
2021/11/06 20:02:23;;;;;;;38.67;26.27;;;4.20;97.60;;;;;;4968394;28;20230;-86
2021/11/06 20:04:51;;;;;;;33.50;24.20;;;4.20;97.30;;;;;;4967660;28;20274;-85
2021/11/06 20:07:19;;;;;;;35.30;24.87;;;4.20;97.50;;;;;;4979262;28;20228;-85
2021/11/06 20:09:47;;;;;;;33.67;23.80;;;4.20;97.20;;;;;;4974731;28;20193;-86
2021/11/06 20:12:14;;;;;;;33.10;23.13;;;4.20;97.00;;;;;;4977012;28;20577;-86
2021/11/06 20:14:41;;;;;;;31.90;23.17;;;4.20;96.80;;;;;;4977496;28;20590;-86
2021/11/06 20:17:08;;;;;;;30.50;21.67;;;4.10;96.90;;;;;;4976594;28;20240;-85
2021/11/06 20:19:36;;;;;;;31.73;23.03;;;4.10;96.80;;;;;;4974714;28;20219;-86
2021/11/06 20:22:05;;;;;;;30.00;21.73;;;4.00;96.80;;;;;;4975115;28;20220;-85
2021/11/06 20:24:32;;;;;;;31.07;21.60;;;3.90;96.90;;;;;;4980602;28;20212;-85
2021/11/06 20:26:59;;;;;;;29.53;20.50;;;3.90;96.60;;;;;;4975321;28;20250;-84
2021/11/06 20:29:26;;;;;;;29.40;20.63;;;3.90;96.50;;;;;;4977651;28;20644;-84
2021/11/06 20:31:55;;;;;;;30.47;21.97;;;3.80;96.80;;;;;;4979688;28;20307;-85
2021/11/06 20:34:22;;;;;;;33.93;22.80;;;3.80;96.80;;;;;;4980757;28;20196;-84
2021/11/06 20:36:50;;;;;;;33.50;23.53;;;3.80;96.60;;;;;;4979923;28;20307;-84
2021/11/06 20:39:20;;;;;;;36.13;24.97;;;3.90;96.30;;;;;;4978228;28;20336;-84
2021/11/06 20:41:49;;;;;;;38.83;27.60;;;3.80;96.10;;;;;;4976240;28;20196;-86
2021/11/06 20:44:18;;;;;;;40.80;27.37;;;3.80;96.30;;;;;;4977491;28;20208;-84
2021/11/06 20:46:48;;;;;;;37.37;26.37;;;3.80;96.10;;;;;;4978836;28;20192;-84
2021/11/06 20:49:16;;;;;;;35.50;24.70;;;3.70;96.00;;;;;;4976725;28;20221;-84
2021/11/06 20:51:46;;;;;;;36.97;24.87;;;3.70;95.80;;;;;;4976942;28;20216;-84
2021/11/06 20:54:24;;;;;;;32.97;22.97;;;3.70;95.70;;;;;;4976901;28;20613;-84
2021/11/06 20:57:06;;;;;;;34.57;24.20;;;3.60;95.40;;;;;;4993353;28;20248;-84
2021/11/06 20:59:33;;;;;;;38.47;24.77;;;3.40;95.60;;;;;;4976847;28;20202;-84
2021/11/06 21:02:08;;;;;;;32.87;23.13;;;3.30;96.10;;;;;;4985696;28;20205;-84
2021/11/06 21:04:37;;;;;;;35.17;21.63;;;3.20;96.90;;;;;;4985509;28;20200;-85
2021/11/06 21:07:06;;;;;;;31.03;21.47;;;3.10;97.10;;;;;;4988749;28;20281;-84
2021/11/06 21:09:46;;;;;;;28.13;19.43;;;3.20;97.00;;;;;;4987856;28;20219;-84
2021/11/06 21:12:26;;;;;;;30.03;20.63;;;3.30;96.80;;;;;;4979722;28;20228;-84
2021/11/06 21:17:49;;;;;;;39.03;22.13;;;3.30;96.00;;;;;;4979880;28;20230;-84
2021/11/06 21:20:17;;;;;;;67.60;22.90;;;3.20;96.30;;;;;;4980147;28;20197;-84
2021/11/06 21:22:50;;;;;;;33.83;20.83;;;3.10;96.70;;;;;;4977483;28;20263;-84
2021/11/06 21:25:19;;;;;;;35.90;21.93;;;3.00;97.10;;;;;;4973021;28;20921;-84
2021/11/06 21:27:48;;;;;;;29.93;20.17;;;3.00;97.30;;;;;;4969058;28;20269;-84
2021/11/06 21:30:15;;;;;;;26.33;18.37;;;2.90;97.20;;;;;;4968653;28;20190;-84
2021/11/06 21:32:43;;;;;;;29.10;19.87;;;2.90;97.20;;;;;;4971469;28;20271;-84
2021/11/06 21:35:13;;;;;;;27.87;19.00;;;2.80;97.10;;;;;;4974580;28;20209;-85
2021/11/06 21:37:42;;;;;;;26.23;19.00;;;2.80;97.20;;;;;;4973943;28;20239;-84
2021/11/06 21:40:14;;;;;;;25.13;18.67;;;2.70;97.00;;;;;;4972995;28;20283;-86
2021/11/06 21:42:48;;;;;;;25.10;17.50;;;2.70;96.90;;;;;;4974234;28;20228;-85
2021/11/06 21:45:30;;;;;;;23.13;16.67;;;2.80;96.50;;;;;;4982835;28;20662;-84
2021/11/06 21:47:59;;;;;;;23.90;17.10;;;2.80;95.90;;;;;;4983244;28;20230;-85
2021/11/06 21:50:28;;;;;;;25.80;16.73;;;2.80;95.50;;;;;;4988834;28;20247;-86
2021/11/06 21:52:58;;;;;;;21.17;15.23;;;2.80;95.30;;;;;;4981119;28;20243;-84
2021/11/06 21:55:27;;;;;;;23.47;16.60;;;2.80;95.00;;;;;;4985348;28;20213;-86
2021/11/06 21:57:56;;;;;;;26.23;17.67;;;2.80;94.80;;;;;;4981026;28;20220;-86
2021/11/06 22:00:25;;;;;;;24.80;18.50;;;2.70;95.20;;;;;;4973818;28;20211;-86
2021/11/06 22:02:58;;;;;;;28.53;18.73;;;2.50;95.30;;;;;;4971393;28;20229;-85
2021/11/06 22:05:25;;;;;;;26.40;18.37;;;2.40;95.70;;;;;;4972391;28;20213;-86
2021/11/06 22:07:58;;;;;;;22.80;16.27;;;2.30;95.80;;;;;;4971230;28;20235;-85
2021/11/06 22:10:27;;;;;;;23.87;16.77;;;2.20;96.50;;;;;;4979310;28;20197;-86
2021/11/06 22:12:55;;;;;;;23.33;16.40;;;2.30;96.30;;;;;;4980353;28;20259;-86
2021/11/06 22:15:42;;;;;;;21.90;15.03;;;2.40;95.70;;;;;;4984866;28;20207;-86
2021/11/06 22:18:09;;;;;;;26.27;16.07;;;2.40;95.30;;;;;;4972552;28;20246;-86
2021/11/06 22:20:38;;;;;;;20.70;15.30;;;2.50;95.00;;;;;;4976225;28;20219;-86
2021/11/06 22:23:08;;;;;;;21.30;15.03;;;2.40;95.00;;;;;;4975695;28;20351;-86
2021/11/06 22:25:36;;;;;;;22.30;14.37;;;2.40;95.30;;;;;;4972456;28;20224;-86
2021/11/06 22:28:06;;;;;;;23.00;16.30;;;2.40;95.10;;;;;;4978285;28;20246;-86
2021/11/06 22:30:34;;;;;;;23.43;15.53;;;2.30;95.00;;;;;;4979913;28;20228;-88
2021/11/06 22:33:02;;;;;;;22.70;15.03;;;2.40;95.20;;;;;;4973844;28;20243;-86
2021/11/06 22:35:30;;;;;;;21.30;15.60;;;2.40;95.10;;;;;;4979684;28;20200;-86
2021/11/06 22:37:57;;;;;;;23.23;17.00;;;2.30;95.10;;;;;;4977133;28;20228;-86
2021/11/06 22:40:25;;;;;;;20.70;15.33;;;2.20;95.30;;;;;;4982298;28;20213;-86
2021/11/06 22:42:54;;;;;;;21.30;15.63;;;2.20;95.00;;;;;;4981757;28;20216;-86
2021/11/06 22:45:24;;;;;;;21.60;15.63;;;2.20;94.90;;;;;;4977132;28;20192;-87
2021/11/06 22:47:58;;;;;;;21.67;16.30;;;2.20;94.80;;;;;;4975862;28;21084;-86
2021/11/06 22:50:25;;;;;;;21.57;15.77;;;2.20;94.50;;;;;;4973517;28;20741;-86
2021/11/06 22:52:56;;;;;;;21.40;15.37;;;2.00;94.80;;;;;;4982719;28;20580;-86
2021/11/06 22:55:24;;;;;;;21.63;15.43;;;1.90;95.00;;;;;;4972825;28;20210;-86
2021/11/06 22:57:51;;;;;;;20.70;15.50;;;1.70;95.50;;;;;;4972800;28;20266;-86
2021/11/06 23:00:34;;;;;;;23.77;15.53;;;1.70;96.00;;;;;;4974355;28;20277;-86
2021/11/06 23:03:04;;;;;;;22.00;15.63;;;1.80;95.80;;;;;;4967551;28;20268;-86
2021/11/06 23:05:33;;;;;;;23.70;16.00;;;2.00;95.70;;;;;;4970977;28;20196;-86
2021/11/06 23:08:00;;;;;;;23.70;16.57;;;2.00;95.50;;;;;;4975714;28;20571;-86
2021/11/06 23:10:28;;;;;;;28.23;17.30;;;1.90;95.50;;;;;;4973158;28;20209;-86
2021/11/06 23:12:57;;;;;;;22.03;15.17;;;1.90;95.70;;;;;;4971700;28;20237;-86
2021/11/06 23:15:28;;;;;;;24.33;15.63;;;1.80;95.80;;;;;;4973470;28;20995;-84
2021/11/06 23:17:56;;;;;;;23.73;16.27;;;1.80;95.90;;;;;;4976581;28;20695;-84
2021/11/06 23:20:24;;;;;;;25.90;15.97;;;1.90;95.80;;;;;;4977618;28;20204;-85
2021/11/06 23:22:51;;;;;;;22.70;15.63;;;1.90;95.60;;;;;;4975761;28;20748;-84
2021/11/06 23:25:19;;;;;;;21.77;15.20;;;1.90;95.50;;;;;;4969369;28;20204;-84
2021/11/06 23:27:48;;;;;;;25.07;15.90;;;2.00;95.40;;;;;;4970834;28;20237;-84
2021/11/06 23:30:15;;;;;;;22.57;15.37;;;2.00;95.10;;;;;;4971608;28;20640;-85
2021/11/06 23:32:46;;;;;;;23.03;16.07;;;2.00;95.20;;;;;;4972579;28;20298;-84
2021/11/06 23:35:15;;;;;;;20.97;14.20;;;1.90;95.70;;;;;;4965591;28;20205;-84
2021/11/06 23:37:42;;;;;;;19.77;13.97;;;2.00;96.40;;;;;;4966675;28;20703;-84
2021/11/06 23:40:11;;;;;;;19.23;12.97;;;2.00;96.90;;;;;;4973993;28;20566;-84
2021/11/06 23:42:39;;;;;;;17.93;12.87;;;1.90;97.00;;;;;;4961104;28;20244;-84
2021/11/06 23:45:09;;;;;;;19.07;13.07;;;2.00;97.50;;;;;;4970302;28;20193;-84
2021/11/06 23:47:40;;;;;;;18.77;12.77;;;2.10;97.50;;;;;;4969479;28;20319;-84
2021/11/06 23:50:13;;;;;;;21.53;12.53;;;2.20;97.40;;;;;;4977252;28;20260;-84
2021/11/06 23:52:45;;;;;;;23.03;12.10;;;2.20;97.10;;;;;;4968538;28;20658;-84
2021/11/06 23:55:16;;;;;;;35.30;13.03;;;2.30;97.70;;;;;;4978286;28;20256;-84
2021/11/06 23:57:48;;;;;;;24.17;12.27;;;2.30;97.60;;;;;;4979507;28;20821;-84
